sensor_id;sensor_type;location;lat;lon;timestamp;P1;durP1;ratioP1;P2;durP2;ratioP2
6300;SDS011;3183;51.010;6.898;2022-11-30T00:00:13;85.90;;;27.10;;
6300;SDS011;3183;51.010;6.898;2022-11-30T00:02:42;84.97;;;26.70;;
6300;SDS011;3183;51.010;6.898;2022-11-30T00:05:09;82.00;;;27.07;;
6300;SDS011;3183;51.010;6.898;2022-11-30T00:07:36;91.13;;;29.93;;
6300;SDS011;3183;51.010;6.898;2022-11-30T00:10:04;90.77;;;28.73;;
6300;SDS011;3183;51.010;6.898;2022-11-30T00:12:31;107.67;;;31.97;;
6300;SDS011;3183;51.010;6.898;2022-11-30T00:14:58;100.93;;;31.87;;
6300;SDS011;3183;51.010;6.898;2022-11-30T00:17:26;94.97;;;29.93;;
6300;SDS011;3183;51.010;6.898;2022-11-30T00:19:54;81.23;;;28.50;;
6300;SDS011;3183;51.010;6.898;2022-11-30T00:22:21;96.63;;;29.50;;
6300;SDS011;3183;51.010;6.898;2022-11-30T00:24:48;93.83;;;28.67;;
6300;SDS011;3183;51.010;6.898;2022-11-30T00:27:15;104.17;;;30.53;;
6300;SDS011;3183;51.010;6.898;2022-11-30T00:29:43;91.73;;;32.27;;
6300;SDS011;3183;51.010;6.898;2022-11-30T00:32:11;111.87;;;34.30;;
6300;SDS011;3183;51.010;6.898;2022-11-30T00:34:38;111.00;;;32.47;;
6300;SDS011;3183;51.010;6.898;2022-11-30T00:37:06;113.57;;;32.57;;
6300;SDS011;3183;51.010;6.898;2022-11-30T00:39:33;95.10;;;29.60;;
6300;SDS011;3183;51.010;6.898;2022-11-30T00:42:01;97.60;;;30.03;;
6300;SDS011;3183;51.010;6.898;2022-11-30T00:44:28;102.80;;;30.67;;
6300;SDS011;3183;51.010;6.898;2022-11-30T00:46:55;103.93;;;32.37;;
6300;SDS011;3183;51.010;6.898;2022-11-30T00:49:22;107.37;;;31.90;;
6300;SDS011;3183;51.010;6.898;2022-11-30T00:51:49;116.00;;;35.27;;
6300;SDS011;3183;51.010;6.898;2022-11-30T00:54:18;120.60;;;33.07;;
6300;SDS011;3183;51.010;6.898;2022-11-30T00:56:46;136.87;;;34.27;;
6300;SDS011;3183;51.010;6.898;2022-11-30T00:59:13;120.57;;;33.43;;
6300;SDS011;3183;51.010;6.898;2022-11-30T01:01:40;122.63;;;31.77;;
6300;SDS011;3183;51.010;6.898;2022-11-30T01:04:08;137.10;;;36.77;;
6300;SDS011;3183;51.010;6.898;2022-11-30T01:06:35;136.53;;;34.77;;
6300;SDS011;3183;51.010;6.898;2022-11-30T01:09:02;136.83;;;35.17;;
6300;SDS011;3183;51.010;6.898;2022-11-30T01:11:32;126.53;;;35.27;;
6300;SDS011;3183;51.010;6.898;2022-11-30T01:13:59;128.83;;;35.37;;
6300;SDS011;3183;51.010;6.898;2022-11-30T01:16:27;138.80;;;36.70;;
6300;SDS011;3183;51.010;6.898;2022-11-30T01:18:54;154.33;;;38.53;;
6300;SDS011;3183;51.010;6.898;2022-11-30T01:21:22;138.40;;;37.40;;
6300;SDS011;3183;51.010;6.898;2022-11-30T01:23:51;144.60;;;39.63;;
6300;SDS011;3183;51.010;6.898;2022-11-30T01:26:19;131.33;;;37.27;;
6300;SDS011;3183;51.010;6.898;2022-11-30T01:28:50;143.30;;;38.97;;
6300;SDS011;3183;51.010;6.898;2022-11-30T01:31:17;121.07;;;37.07;;
6300;SDS011;3183;51.010;6.898;2022-11-30T01:33:47;146.07;;;36.70;;
6300;SDS011;3183;51.010;6.898;2022-11-30T01:36:14;133.63;;;37.27;;
6300;SDS011;3183;51.010;6.898;2022-11-30T01:38:42;128.43;;;37.00;;
6300;SDS011;3183;51.010;6.898;2022-11-30T01:41:10;119.03;;;34.07;;
6300;SDS011;3183;51.010;6.898;2022-11-30T01:43:39;130.37;;;34.93;;
6300;SDS011;3183;51.010;6.898;2022-11-30T01:46:17;132.80;;;35.43;;
6300;SDS011;3183;51.010;6.898;2022-11-30T01:48:46;118.90;;;33.23;;
6300;SDS011;3183;51.010;6.898;2022-11-30T01:51:14;125.83;;;34.80;;
6300;SDS011;3183;51.010;6.898;2022-11-30T01:53:43;120.70;;;36.73;;
6300;SDS011;3183;51.010;6.898;2022-11-30T01:56:10;135.23;;;33.43;;
6300;SDS011;3183;51.010;6.898;2022-11-30T01:58:38;144.13;;;34.77;;
6300;SDS011;3183;51.010;6.898;2022-11-30T02:01:10;149.43;;;36.17;;
6300;SDS011;3183;51.010;6.898;2022-11-30T02:03:40;149.20;;;37.47;;
6300;SDS011;3183;51.010;6.898;2022-11-30T02:06:09;145.17;;;34.47;;
6300;SDS011;3183;51.010;6.898;2022-11-30T02:08:36;115.83;;;33.77;;
6300;SDS011;3183;51.010;6.898;2022-11-30T02:11:05;147.80;;;33.87;;
6300;SDS011;3183;51.010;6.898;2022-11-30T02:13:39;152.33;;;34.47;;
6300;SDS011;3183;51.010;6.898;2022-11-30T02:16:14;114.70;;;31.90;;
6300;SDS011;3183;51.010;6.898;2022-11-30T02:18:48;130.30;;;33.23;;
6300;SDS011;3183;51.010;6.898;2022-11-30T02:21:18;105.47;;;29.90;;
6300;SDS011;3183;51.010;6.898;2022-11-30T02:26:38;110.90;;;31.70;;
6300;SDS011;3183;51.010;6.898;2022-11-30T02:29:15;126.63;;;30.03;;
6300;SDS011;3183;51.010;6.898;2022-11-30T02:31:45;110.67;;;31.10;;
6300;SDS011;3183;51.010;6.898;2022-11-30T02:34:15;151.00;;;34.20;;
6300;SDS011;3183;51.010;6.898;2022-11-30T02:36:45;124.23;;;32.17;;
6300;SDS011;3183;51.010;6.898;2022-11-30T02:39:13;124.70;;;33.67;;
6300;SDS011;3183;51.010;6.898;2022-11-30T02:41:41;132.40;;;32.97;;
6300;SDS011;3183;51.010;6.898;2022-11-30T02:44:08;127.37;;;31.70;;
6300;SDS011;3183;51.010;6.898;2022-11-30T02:46:40;137.60;;;33.13;;
6300;SDS011;3183;51.010;6.898;2022-11-30T02:49:10;125.63;;;31.53;;
6300;SDS011;3183;51.010;6.898;2022-11-30T02:51:43;129.77;;;31.53;;
6300;SDS011;3183;51.010;6.898;2022-11-30T02:54:11;116.77;;;32.13;;
6300;SDS011;3183;51.010;6.898;2022-11-30T02:56:38;137.73;;;33.33;;
6300;SDS011;3183;51.010;6.898;2022-11-30T02:59:05;132.13;;;31.47;;
6300;SDS011;3183;51.010;6.898;2022-11-30T03:01:33;136.43;;;35.50;;
6300;SDS011;3183;51.010;6.898;2022-11-30T03:04:01;120.43;;;32.63;;
6300;SDS011;3183;51.010;6.898;2022-11-30T03:06:28;138.77;;;34.70;;
6300;SDS011;3183;51.010;6.898;2022-11-30T03:08:56;145.20;;;33.63;;
6300;SDS011;3183;51.010;6.898;2022-11-30T03:11:23;130.73;;;33.50;;
6300;SDS011;3183;51.010;6.898;2022-11-30T03:13:50;133.47;;;32.87;;
6300;SDS011;3183;51.010;6.898;2022-11-30T03:16:17;141.10;;;32.50;;
6300;SDS011;3183;51.010;6.898;2022-11-30T03:18:44;168.67;;;34.73;;
6300;SDS011;3183;51.010;6.898;2022-11-30T03:21:13;125.83;;;31.87;;
6300;SDS011;3183;51.010;6.898;2022-11-30T03:23:40;148.80;;;34.07;;
6300;SDS011;3183;51.010;6.898;2022-11-30T03:26:07;157.60;;;35.43;;
6300;SDS011;3183;51.010;6.898;2022-11-30T03:28:35;135.00;;;36.20;;
6300;SDS011;3183;51.010;6.898;2022-11-30T03:31:02;145.83;;;36.63;;
6300;SDS011;3183;51.010;6.898;2022-11-30T03:33:29;157.00;;;36.93;;
6300;SDS011;3183;51.010;6.898;2022-11-30T03:35:57;165.47;;;34.77;;
6300;SDS011;3183;51.010;6.898;2022-11-30T03:38:26;143.00;;;36.20;;
6300;SDS011;3183;51.010;6.898;2022-11-30T03:40:58;204.43;;;38.23;;
6300;SDS011;3183;51.010;6.898;2022-11-30T03:43:25;182.73;;;38.17;;
6300;SDS011;3183;51.010;6.898;2022-11-30T03:45:52;239.90;;;42.43;;
6300;SDS011;3183;51.010;6.898;2022-11-30T03:48:20;169.40;;;38.07;;
6300;SDS011;3183;51.010;6.898;2022-11-30T03:50:47;159.87;;;37.00;;
6300;SDS011;3183;51.010;6.898;2022-11-30T03:53:14;163.33;;;38.27;;
6300;SDS011;3183;51.010;6.898;2022-11-30T03:55:43;190.80;;;38.87;;
6300;SDS011;3183;51.010;6.898;2022-11-30T03:58:10;175.67;;;37.40;;
6300;SDS011;3183;51.010;6.898;2022-11-30T04:00:37;198.23;;;37.93;;
6300;SDS011;3183;51.010;6.898;2022-11-30T04:03:05;276.33;;;44.07;;
6300;SDS011;3183;51.010;6.898;2022-11-30T04:05:32;188.90;;;36.87;;
6300;SDS011;3183;51.010;6.898;2022-11-30T04:07:59;246.90;;;41.30;;
6300;SDS011;3183;51.010;6.898;2022-11-30T04:10:26;206.97;;;37.33;;
6300;SDS011;3183;51.010;6.898;2022-11-30T04:12:55;182.47;;;37.00;;
6300;SDS011;3183;51.010;6.898;2022-11-30T04:15:22;184.73;;;37.63;;
6300;SDS011;3183;51.010;6.898;2022-11-30T04:17:49;205.33;;;36.17;;
6300;SDS011;3183;51.010;6.898;2022-11-30T04:20:16;174.47;;;35.63;;
6300;SDS011;3183;51.010;6.898;2022-11-30T04:22:43;238.90;;;37.43;;
6300;SDS011;3183;51.010;6.898;2022-11-30T04:25:11;176.57;;;38.73;;
6300;SDS011;3183;51.010;6.898;2022-11-30T04:27:38;202.43;;;38.07;;
6300;SDS011;3183;51.010;6.898;2022-11-30T04:30:07;186.97;;;39.80;;
6300;SDS011;3183;51.010;6.898;2022-11-30T04:32:35;155.30;;;34.13;;
6300;SDS011;3183;51.010;6.898;2022-11-30T04:35:02;218.70;;;41.00;;
6300;SDS011;3183;51.010;6.898;2022-11-30T04:37:29;157.47;;;35.00;;
6300;SDS011;3183;51.010;6.898;2022-11-30T04:39:56;149.10;;;33.07;;
6300;SDS011;3183;51.010;6.898;2022-11-30T04:42:23;134.63;;;34.87;;
6300;SDS011;3183;51.010;6.898;2022-11-30T04:44:50;138.37;;;33.20;;
6300;SDS011;3183;51.010;6.898;2022-11-30T04:47:19;155.70;;;35.80;;
6300;SDS011;3183;51.010;6.898;2022-11-30T04:49:46;139.07;;;35.00;;
6300;SDS011;3183;51.010;6.898;2022-11-30T04:52:13;134.50;;;34.27;;
6300;SDS011;3183;51.010;6.898;2022-11-30T04:54:40;146.50;;;35.33;;
6300;SDS011;3183;51.010;6.898;2022-11-30T04:57:07;147.27;;;36.40;;
6300;SDS011;3183;51.010;6.898;2022-11-30T04:59:34;131.37;;;33.10;;
6300;SDS011;3183;51.010;6.898;2022-11-30T05:02:02;129.93;;;33.97;;
6300;SDS011;3183;51.010;6.898;2022-11-30T05:04:30;105.17;;;30.47;;
6300;SDS011;3183;51.010;6.898;2022-11-30T05:06:57;116.60;;;33.37;;
6300;SDS011;3183;51.010;6.898;2022-11-30T05:09:24;114.70;;;31.87;;
6300;SDS011;3183;51.010;6.898;2022-11-30T05:11:52;102.60;;;30.37;;
6300;SDS011;3183;51.010;6.898;2022-11-30T05:14:19;129.30;;;38.38;;
6300;SDS011;3183;51.010;6.898;2022-11-30T05:16:46;113.93;;;33.03;;
6300;SDS011;3183;51.010;6.898;2022-11-30T05:19:13;125.37;;;35.60;;
6300;SDS011;3183;51.010;6.898;2022-11-30T05:21:42;149.97;;;40.60;;
6300;SDS011;3183;51.010;6.898;2022-11-30T05:24:09;165.80;;;39.50;;
6300;SDS011;3183;51.010;6.898;2022-11-30T05:26:36;159.03;;;43.10;;
6300;SDS011;3183;51.010;6.898;2022-11-30T05:29:03;138.40;;;39.17;;
6300;SDS011;3183;51.010;6.898;2022-11-30T05:31:31;161.93;;;39.47;;
6300;SDS011;3183;51.010;6.898;2022-11-30T05:33:58;155.43;;;41.37;;
6300;SDS011;3183;51.010;6.898;2022-11-30T05:36:26;163.97;;;42.57;;
6300;SDS011;3183;51.010;6.898;2022-11-30T05:38:54;140.50;;;41.10;;
6300;SDS011;3183;51.010;6.898;2022-11-30T05:41:21;149.30;;;44.10;;
6300;SDS011;3183;51.010;6.898;2022-11-30T05:43:48;173.57;;;45.20;;
6300;SDS011;3183;51.010;6.898;2022-11-30T05:46:15;165.83;;;42.57;;
6300;SDS011;3183;51.010;6.898;2022-11-30T05:48:43;150.90;;;41.00;;
6300;SDS011;3183;51.010;6.898;2022-11-30T05:51:11;146.47;;;40.80;;
6300;SDS011;3183;51.010;6.898;2022-11-30T05:53:39;164.00;;;42.13;;
6300;SDS011;3183;51.010;6.898;2022-11-30T05:56:08;152.80;;;39.40;;
6300;SDS011;3183;51.010;6.898;2022-11-30T05:58:36;138.50;;;39.80;;
6300;SDS011;3183;51.010;6.898;2022-11-30T06:01:04;134.50;;;38.87;;
6300;SDS011;3183;51.010;6.898;2022-11-30T06:03:32;126.80;;;37.87;;
6300;SDS011;3183;51.010;6.898;2022-11-30T06:05:59;126.53;;;39.90;;
6300;SDS011;3183;51.010;6.898;2022-11-30T06:08:26;136.83;;;41.37;;
6300;SDS011;3183;51.010;6.898;2022-11-30T06:10:58;127.53;;;37.97;;
6300;SDS011;3183;51.010;6.898;2022-11-30T06:13:26;139.20;;;35.83;;
6300;SDS011;3183;51.010;6.898;2022-11-30T06:15:57;141.73;;;37.10;;
6300;SDS011;3183;51.010;6.898;2022-11-30T06:18:24;116.13;;;33.40;;
6300;SDS011;3183;51.010;6.898;2022-11-30T06:20:51;93.37;;;32.20;;
6300;SDS011;3183;51.010;6.898;2022-11-30T06:23:18;104.77;;;34.40;;
6300;SDS011;3183;51.010;6.898;2022-11-30T06:25:45;100.53;;;32.50;;
6300;SDS011;3183;51.010;6.898;2022-11-30T06:28:12;97.73;;;31.97;;
6300;SDS011;3183;51.010;6.898;2022-11-30T06:30:41;105.47;;;31.60;;
6300;SDS011;3183;51.010;6.898;2022-11-30T06:33:08;107.87;;;32.70;;
6300;SDS011;3183;51.010;6.898;2022-11-30T06:35:35;108.97;;;32.90;;
6300;SDS011;3183;51.010;6.898;2022-11-30T06:38:02;83.63;;;29.77;;
6300;SDS011;3183;51.010;6.898;2022-11-30T06:40:30;93.27;;;30.97;;
6300;SDS011;3183;51.010;6.898;2022-11-30T06:42:57;88.67;;;29.27;;
6300;SDS011;3183;51.010;6.898;2022-11-30T06:45:24;86.50;;;29.97;;
6300;SDS011;3183;51.010;6.898;2022-11-30T06:47:59;77.47;;;28.97;;
6300;SDS011;3183;51.010;6.898;2022-11-30T06:50:28;90.00;;;31.30;;
6300;SDS011;3183;51.010;6.898;2022-11-30T06:52:55;79.50;;;27.90;;
6300;SDS011;3183;51.010;6.898;2022-11-30T06:55:23;63.10;;;25.63;;
6300;SDS011;3183;51.010;6.898;2022-11-30T06:57:50;76.57;;;26.33;;
6300;SDS011;3183;51.010;6.898;2022-11-30T07:00:18;73.73;;;28.30;;
6300;SDS011;3183;51.010;6.898;2022-11-30T07:02:45;70.87;;;28.23;;
6300;SDS011;3183;51.010;6.898;2022-11-30T07:05:13;73.03;;;26.43;;
6300;SDS011;3183;51.010;6.898;2022-11-30T07:07:41;65.90;;;26.10;;
6300;SDS011;3183;51.010;6.898;2022-11-30T07:10:08;62.40;;;24.17;;
6300;SDS011;3183;51.010;6.898;2022-11-30T07:12:35;67.83;;;24.20;;
6300;SDS011;3183;51.010;6.898;2022-11-30T07:15:03;56.27;;;23.87;;
6300;SDS011;3183;51.010;6.898;2022-11-30T07:17:30;66.57;;;25.37;;
6300;SDS011;3183;51.010;6.898;2022-11-30T07:19:57;62.83;;;24.80;;
6300;SDS011;3183;51.010;6.898;2022-11-30T07:22:26;58.57;;;22.90;;
6300;SDS011;3183;51.010;6.898;2022-11-30T07:24:53;60.87;;;25.10;;
6300;SDS011;3183;51.010;6.898;2022-11-30T07:27:37;58.80;;;22.70;;
6300;SDS011;3183;51.010;6.898;2022-11-30T07:30:05;62.37;;;24.87;;
6300;SDS011;3183;51.010;6.898;2022-11-30T07:32:32;48.50;;;21.83;;
6300;SDS011;3183;51.010;6.898;2022-11-30T07:35:00;51.63;;;21.97;;
6300;SDS011;3183;51.010;6.898;2022-11-30T07:37:28;54.23;;;22.30;;
6300;SDS011;3183;51.010;6.898;2022-11-30T07:39:55;52.97;;;22.60;;
6300;SDS011;3183;51.010;6.898;2022-11-30T07:42:22;51.07;;;21.77;;
6300;SDS011;3183;51.010;6.898;2022-11-30T07:44:49;50.63;;;22.30;;
6300;SDS011;3183;51.010;6.898;2022-11-30T07:47:17;58.83;;;24.40;;
6300;SDS011;3183;51.010;6.898;2022-11-30T07:49:44;51.30;;;22.53;;
6300;SDS011;3183;51.010;6.898;2022-11-30T07:52:11;55.73;;;21.40;;
6300;SDS011;3183;51.010;6.898;2022-11-30T07:54:39;47.63;;;20.70;;
6300;SDS011;3183;51.010;6.898;2022-11-30T07:57:07;52.57;;;22.67;;
6300;SDS011;3183;51.010;6.898;2022-11-30T07:59:34;49.17;;;22.33;;
6300;SDS011;3183;51.010;6.898;2022-11-30T08:02:01;54.20;;;21.07;;
6300;SDS011;3183;51.010;6.898;2022-11-30T08:04:28;47.77;;;21.10;;
6300;SDS011;3183;51.010;6.898;2022-11-30T08:06:55;43.97;;;19.70;;
6300;SDS011;3183;51.010;6.898;2022-11-30T08:09:23;46.67;;;20.30;;
6300;SDS011;3183;51.010;6.898;2022-11-30T08:11:51;42.20;;;18.87;;
6300;SDS011;3183;51.010;6.898;2022-11-30T08:14:18;47.23;;;20.40;;
6300;SDS011;3183;51.010;6.898;2022-11-30T08:16:45;44.40;;;19.67;;
6300;SDS011;3183;51.010;6.898;2022-11-30T08:19:13;49.43;;;20.40;;
6300;SDS011;3183;51.010;6.898;2022-11-30T08:21:40;46.67;;;21.37;;
6300;SDS011;3183;51.010;6.898;2022-11-30T08:24:08;47.10;;;20.67;;
6300;SDS011;3183;51.010;6.898;2022-11-30T08:26:36;44.57;;;20.43;;
6300;SDS011;3183;51.010;6.898;2022-11-30T08:29:05;47.87;;;19.80;;
6300;SDS011;3183;51.010;6.898;2022-11-30T08:31:33;52.70;;;21.73;;
6300;SDS011;3183;51.010;6.898;2022-11-30T08:34:01;51.03;;;22.70;;
6300;SDS011;3183;51.010;6.898;2022-11-30T08:36:29;47.00;;;22.20;;
6300;SDS011;3183;51.010;6.898;2022-11-30T08:38:56;50.47;;;21.57;;
6300;SDS011;3183;51.010;6.898;2022-11-30T08:41:24;46.07;;;21.73;;
6300;SDS011;3183;51.010;6.898;2022-11-30T08:43:51;54.20;;;22.83;;
6300;SDS011;3183;51.010;6.898;2022-11-30T08:46:21;51.97;;;24.40;;
6300;SDS011;3183;51.010;6.898;2022-11-30T08:48:48;47.57;;;21.30;;
6300;SDS011;3183;51.010;6.898;2022-11-30T08:51:15;58.40;;;24.57;;
6300;SDS011;3183;51.010;6.898;2022-11-30T08:53:43;41.77;;;20.60;;
6300;SDS011;3183;51.010;6.898;2022-11-30T08:56:12;49.70;;;22.37;;
6300;SDS011;3183;51.010;6.898;2022-11-30T08:58:39;55.80;;;23.17;;
6300;SDS011;3183;51.010;6.898;2022-11-30T09:01:07;51.93;;;23.57;;
6300;SDS011;3183;51.010;6.898;2022-11-30T09:03:36;53.00;;;23.20;;
6300;SDS011;3183;51.010;6.898;2022-11-30T09:06:04;57.27;;;24.17;;
6300;SDS011;3183;51.010;6.898;2022-11-30T09:08:31;49.83;;;22.40;;
6300;SDS011;3183;51.010;6.898;2022-11-30T09:10:58;51.97;;;23.03;;
6300;SDS011;3183;51.010;6.898;2022-11-30T09:13:32;43.03;;;21.70;;
6300;SDS011;3183;51.010;6.898;2022-11-30T09:16:00;58.57;;;22.77;;
6300;SDS011;3183;51.010;6.898;2022-11-30T09:18:27;45.33;;;22.60;;
6300;SDS011;3183;51.010;6.898;2022-11-30T09:20:58;50.63;;;23.13;;
6300;SDS011;3183;51.010;6.898;2022-11-30T09:23:26;61.17;;;24.30;;
6300;SDS011;3183;51.010;6.898;2022-11-30T09:25:54;56.63;;;24.30;;
6300;SDS011;3183;51.010;6.898;2022-11-30T09:28:21;50.77;;;24.60;;
6300;SDS011;3183;51.010;6.898;2022-11-30T09:30:48;59.40;;;25.30;;
6300;SDS011;3183;51.010;6.898;2022-11-30T09:33:15;51.80;;;24.30;;
6300;SDS011;3183;51.010;6.898;2022-11-30T09:35:42;57.03;;;25.07;;
6300;SDS011;3183;51.010;6.898;2022-11-30T09:38:11;55.87;;;25.47;;
6300;SDS011;3183;51.010;6.898;2022-11-30T09:40:38;54.13;;;26.53;;
6300;SDS011;3183;51.010;6.898;2022-11-30T09:43:07;59.30;;;26.23;;
6300;SDS011;3183;51.010;6.898;2022-11-30T09:45:37;58.60;;;25.90;;
6300;SDS011;3183;51.010;6.898;2022-11-30T09:48:22;59.87;;;28.50;;
6300;SDS011;3183;51.010;6.898;2022-11-30T09:50:51;66.77;;;26.13;;
6300;SDS011;3183;51.010;6.898;2022-11-30T09:53:21;64.20;;;27.37;;
6300;SDS011;3183;51.010;6.898;2022-11-30T09:55:50;61.63;;;26.90;;
6300;SDS011;3183;51.010;6.898;2022-11-30T09:58:22;56.40;;;25.90;;
6300;SDS011;3183;51.010;6.898;2022-11-30T10:00:50;63.60;;;26.77;;
6300;SDS011;3183;51.010;6.898;2022-11-30T10:03:17;55.90;;;26.07;;
6300;SDS011;3183;51.010;6.898;2022-11-30T10:05:47;66.50;;;29.00;;
6300;SDS011;3183;51.010;6.898;2022-11-30T10:08:18;61.53;;;28.77;;
6300;SDS011;3183;51.010;6.898;2022-11-30T10:10:53;55.37;;;26.80;;
6300;SDS011;3183;51.010;6.898;2022-11-30T10:13:29;56.27;;;25.00;;
6300;SDS011;3183;51.010;6.898;2022-11-30T10:16:02;62.10;;;27.47;;
6300;SDS011;3183;51.010;6.898;2022-11-30T10:18:36;63.83;;;27.70;;
6300;SDS011;3183;51.010;6.898;2022-11-30T10:21:10;64.57;;;27.40;;
6300;SDS011;3183;51.010;6.898;2022-11-30T10:23:44;54.93;;;28.03;;
6300;SDS011;3183;51.010;6.898;2022-11-30T10:26:15;71.40;;;31.50;;
6300;SDS011;3183;51.010;6.898;2022-11-30T10:28:48;68.67;;;31.00;;
6300;SDS011;3183;51.010;6.898;2022-11-30T10:31:16;66.13;;;28.20;;
6300;SDS011;3183;51.010;6.898;2022-11-30T10:33:44;66.17;;;30.60;;
6300;SDS011;3183;51.010;6.898;2022-11-30T10:36:12;81.40;;;31.03;;
6300;SDS011;3183;51.010;6.898;2022-11-30T10:38:42;69.47;;;32.03;;
6300;SDS011;3183;51.010;6.898;2022-11-30T10:41:11;70.17;;;31.63;;
6300;SDS011;3183;51.010;6.898;2022-11-30T10:43:42;78.27;;;32.97;;
6300;SDS011;3183;51.010;6.898;2022-11-30T10:46:14;76.13;;;32.60;;
6300;SDS011;3183;51.010;6.898;2022-11-30T10:48:47;81.60;;;32.70;;
6300;SDS011;3183;51.010;6.898;2022-11-30T10:51:15;78.90;;;33.67;;
6300;SDS011;3183;51.010;6.898;2022-11-30T10:53:43;72.97;;;32.43;;
6300;SDS011;3183;51.010;6.898;2022-11-30T10:56:12;76.87;;;32.60;;
6300;SDS011;3183;51.010;6.898;2022-11-30T10:58:41;75.53;;;32.07;;
6300;SDS011;3183;51.010;6.898;2022-11-30T11:01:27;75.90;;;31.37;;
6300;SDS011;3183;51.010;6.898;2022-11-30T11:04:04;75.00;;;32.97;;
6300;SDS011;3183;51.010;6.898;2022-11-30T11:06:32;73.27;;;33.30;;
6300;SDS011;3183;51.010;6.898;2022-11-30T11:09:01;77.33;;;33.57;;
6300;SDS011;3183;51.010;6.898;2022-11-30T11:11:51;81.00;;;34.43;;
6300;SDS011;3183;51.010;6.898;2022-11-30T11:14:20;74.33;;;33.67;;
6300;SDS011;3183;51.010;6.898;2022-11-30T11:16:50;78.30;;;35.40;;
6300;SDS011;3183;51.010;6.898;2022-11-30T11:19:22;70.77;;;32.50;;
6300;SDS011;3183;51.010;6.898;2022-11-30T11:21:49;78.97;;;34.43;;
6300;SDS011;3183;51.010;6.898;2022-11-30T11:24:17;77.20;;;36.57;;
6300;SDS011;3183;51.010;6.898;2022-11-30T11:26:48;87.00;;;36.87;;
6300;SDS011;3183;51.010;6.898;2022-11-30T11:29:23;80.13;;;36.20;;
6300;SDS011;3183;51.010;6.898;2022-11-30T11:32:06;84.73;;;36.77;;
6300;SDS011;3183;51.010;6.898;2022-11-30T11:34:35;90.60;;;38.80;;
6300;SDS011;3183;51.010;6.898;2022-11-30T11:37:03;114.13;;;34.90;;
6300;SDS011;3183;51.010;6.898;2022-11-30T11:39:31;85.73;;;37.23;;
6300;SDS011;3183;51.010;6.898;2022-11-30T11:41:58;103.33;;;41.33;;
6300;SDS011;3183;51.010;6.898;2022-11-30T11:44:26;84.97;;;36.17;;
6300;SDS011;3183;51.010;6.898;2022-11-30T11:46:54;109.70;;;39.27;;
6300;SDS011;3183;51.010;6.898;2022-11-30T11:49:24;90.63;;;39.73;;
6300;SDS011;3183;51.010;6.898;2022-11-30T11:51:58;91.43;;;38.57;;
6300;SDS011;3183;51.010;6.898;2022-11-30T11:54:27;95.00;;;38.90;;
6300;SDS011;3183;51.010;6.898;2022-11-30T11:56:57;97.73;;;40.17;;
6300;SDS011;3183;51.010;6.898;2022-11-30T11:59:27;98.93;;;35.10;;
6300;SDS011;3183;51.010;6.898;2022-11-30T12:01:58;97.27;;;38.37;;
6300;SDS011;3183;51.010;6.898;2022-11-30T12:04:34;88.43;;;37.90;;
6300;SDS011;3183;51.010;6.898;2022-11-30T12:07:04;94.13;;;38.57;;
6300;SDS011;3183;51.010;6.898;2022-11-30T12:09:38;81.97;;;37.50;;
6300;SDS011;3183;51.010;6.898;2022-11-30T12:12:08;101.17;;;38.93;;
6300;SDS011;3183;51.010;6.898;2022-11-30T12:14:36;88.37;;;39.30;;
6300;SDS011;3183;51.010;6.898;2022-11-30T12:17:19;97.40;;;40.40;;
6300;SDS011;3183;51.010;6.898;2022-11-30T12:19:56;93.50;;;39.33;;
6300;SDS011;3183;51.010;6.898;2022-11-30T12:22:29;94.03;;;38.10;;
6300;SDS011;3183;51.010;6.898;2022-11-30T12:25:11;92.97;;;36.07;;
6300;SDS011;3183;51.010;6.898;2022-11-30T12:27:43;86.93;;;36.27;;
6300;SDS011;3183;51.010;6.898;2022-11-30T12:30:15;80.67;;;34.57;;
6300;SDS011;3183;51.010;6.898;2022-11-30T12:32:51;84.77;;;35.33;;
6300;SDS011;3183;51.010;6.898;2022-11-30T12:35:34;81.13;;;35.87;;
6300;SDS011;3183;51.010;6.898;2022-11-30T12:38:08;76.67;;;33.07;;
6300;SDS011;3183;51.010;6.898;2022-11-30T12:40:40;78.10;;;33.97;;
6300;SDS011;3183;51.010;6.898;2022-11-30T12:43:11;88.87;;;33.37;;
6300;SDS011;3183;51.010;6.898;2022-11-30T12:45:41;74.23;;;31.53;;
6300;SDS011;3183;51.010;6.898;2022-11-30T12:48:13;94.77;;;39.37;;
6300;SDS011;3183;51.010;6.898;2022-11-30T12:50:46;96.20;;;38.50;;
6300;SDS011;3183;51.010;6.898;2022-11-30T12:53:17;99.07;;;37.33;;
6300;SDS011;3183;51.010;6.898;2022-11-30T12:55:49;84.53;;;35.67;;
6300;SDS011;3183;51.010;6.898;2022-11-30T12:58:21;98.33;;;37.47;;
6300;SDS011;3183;51.010;6.898;2022-11-30T13:00:55;88.33;;;35.57;;
6300;SDS011;3183;51.010;6.898;2022-11-30T13:03:45;91.77;;;35.07;;
6300;SDS011;3183;51.010;6.898;2022-11-30T13:06:16;89.50;;;34.33;;
6300;SDS011;3183;51.010;6.898;2022-11-30T13:08:49;98.33;;;35.50;;
6300;SDS011;3183;51.010;6.898;2022-11-30T13:11:26;95.07;;;36.83;;
6300;SDS011;3183;51.010;6.898;2022-11-30T13:14:03;87.70;;;33.30;;
6300;SDS011;3183;51.010;6.898;2022-11-30T13:16:30;84.50;;;36.93;;
6300;SDS011;3183;51.010;6.898;2022-11-30T13:19:06;83.37;;;33.87;;
6300;SDS011;3183;51.010;6.898;2022-11-30T13:21:38;79.40;;;34.07;;
6300;SDS011;3183;51.010;6.898;2022-11-30T13:24:09;91.43;;;35.00;;
6300;SDS011;3183;51.010;6.898;2022-11-30T13:26:39;120.43;;;40.93;;
6300;SDS011;3183;51.010;6.898;2022-11-30T13:29:31;75.03;;;31.33;;
6300;SDS011;3183;51.010;6.898;2022-11-30T13:32:04;86.17;;;34.40;;
6300;SDS011;3183;51.010;6.898;2022-11-30T13:34:34;177.93;;;53.83;;
6300;SDS011;3183;51.010;6.898;2022-11-30T13:37:06;74.77;;;32.13;;
6300;SDS011;3183;51.010;6.898;2022-11-30T13:39:43;79.60;;;30.40;;
6300;SDS011;3183;51.010;6.898;2022-11-30T13:42:14;67.33;;;28.40;;
6300;SDS011;3183;51.010;6.898;2022-11-30T13:44:46;77.80;;;30.77;;
6300;SDS011;3183;51.010;6.898;2022-11-30T13:47:15;67.40;;;28.57;;
6300;SDS011;3183;51.010;6.898;2022-11-30T13:49:42;86.03;;;32.10;;
6300;SDS011;3183;51.010;6.898;2022-11-30T13:52:12;60.37;;;27.60;;
6300;SDS011;3183;51.010;6.898;2022-11-30T13:54:40;64.17;;;27.93;;
6300;SDS011;3183;51.010;6.898;2022-11-30T13:57:18;68.27;;;30.50;;
6300;SDS011;3183;51.010;6.898;2022-11-30T14:02:48;69.90;;;29.40;;
6300;SDS011;3183;51.010;6.898;2022-11-30T14:05:21;68.37;;;30.30;;
6300;SDS011;3183;51.010;6.898;2022-11-30T14:10:36;68.47;;;28.10;;
6300;SDS011;3183;51.010;6.898;2022-11-30T14:13:06;62.57;;;26.30;;
6300;SDS011;3183;51.010;6.898;2022-11-30T14:15:54;59.47;;;27.40;;
6300;SDS011;3183;51.010;6.898;2022-11-30T14:18:29;55.07;;;25.40;;
6300;SDS011;3183;51.010;6.898;2022-11-30T14:20:58;55.83;;;26.73;;
6300;SDS011;3183;51.010;6.898;2022-11-30T14:23:27;91.03;;;41.10;;
6300;SDS011;3183;51.010;6.898;2022-11-30T14:25:58;75.40;;;28.97;;
6300;SDS011;3183;51.010;6.898;2022-11-30T14:28:28;58.37;;;28.27;;
6300;SDS011;3183;51.010;6.898;2022-11-30T14:30:57;88.80;;;35.50;;
6300;SDS011;3183;51.010;6.898;2022-11-30T14:33:26;88.40;;;34.80;;
6300;SDS011;3183;51.010;6.898;2022-11-30T14:35:56;69.27;;;29.47;;
6300;SDS011;3183;51.010;6.898;2022-11-30T14:38:24;70.93;;;30.60;;
6300;SDS011;3183;51.010;6.898;2022-11-30T14:40:51;66.93;;;29.80;;
6300;SDS011;3183;51.010;6.898;2022-11-30T14:43:20;61.07;;;29.23;;
6300;SDS011;3183;51.010;6.898;2022-11-30T14:45:57;66.90;;;30.10;;
6300;SDS011;3183;51.010;6.898;2022-11-30T14:48:25;69.00;;;31.83;;
6300;SDS011;3183;51.010;6.898;2022-11-30T14:50:53;64.83;;;29.97;;
6300;SDS011;3183;51.010;6.898;2022-11-30T14:53:24;70.57;;;30.13;;
6300;SDS011;3183;51.010;6.898;2022-11-30T14:55:56;69.80;;;27.80;;
6300;SDS011;3183;51.010;6.898;2022-11-30T14:58:29;66.63;;;27.83;;
6300;SDS011;3183;51.010;6.898;2022-11-30T15:00:57;75.07;;;30.23;;
6300;SDS011;3183;51.010;6.898;2022-11-30T15:03:25;68.13;;;31.10;;